Time;durP1;ratioP1;P1;durP2;ratioP2;P2;SDS_P1;SDS_P2;PMS_P1;PMS_P2;Temp;Humidity;BMP_temperature;BMP_pressure;BME280_temperature;BME280_humidity;BME280_pressure;Samples;Min_cycle;Max_cycle;Signal;HPM_P1;HPM_P2
2022/01/09 00:01:35;;;;;;;13.10;5.70;;;;;;;3.86;61.31;100364.81;117387;1182;23085;-69
2022/01/09 00:04:04;;;;;;;8.70;5.00;;;;;;;3.86;61.32;100362.56;117393;1182;23474;-69
2022/01/09 00:06:33;;;;;;;10.60;5.70;;;;;;;3.86;61.20;100363.60;117363;1184;21854;-69
2022/01/09 00:09:21;;;;;;;7.50;4.70;;;;;;;3.85;61.18;100359.23;117336;1185;21907;-55
2022/01/09 00:11:49;;;;;;;11.30;5.20;;;;;;;3.84;61.22;100354.89;117380;1182;21872;-71
2022/01/09 00:14:17;;;;;;;11.40;5.80;;;;;;;3.85;61.34;100348.83;117360;1185;23439;-54
2022/01/09 00:16:45;;;;;;;11.00;5.40;;;;;;;3.87;61.44;100347.81;117239;1182;24165;-70
2022/01/09 00:19:14;;;;;;;11.60;5.60;;;;;;;3.89;61.40;100344.89;117370;1182;21923;-54
2022/01/09 00:21:42;;;;;;;13.40;6.90;;;;;;;3.90;61.39;100343.85;117333;1182;22747;-55
2022/01/09 00:24:11;;;;;;;16.60;5.70;;;;;;;3.89;61.39;100341.59;117372;1183;23477;-71
2022/01/09 00:26:40;;;;;;;10.10;5.60;;;;;;;3.90;61.32;100341.95;117523;1182;21854;-70
2022/01/09 00:29:09;;;;;;;11.20;6.00;;;;;;;3.90;61.29;100336.05;117491;1186;22105;-72
2022/01/09 00:31:38;;;;;;;13.40;6.10;;;;;;;3.91;61.32;100329.29;117555;1184;23470;-55
2022/01/09 00:34:08;;;;;;;12.10;5.90;;;;;;;3.90;61.36;100326.84;117359;1185;22096;-71
2022/01/09 00:36:36;;;;;;;13.20;6.30;;;;;;;3.89;61.35;100319.54;117357;1176;21916;-69
2022/01/09 00:39:04;;;;;;;14.70;6.10;;;;;;;3.90;61.27;100324.75;117375;1182;23438;-70
2022/01/09 00:41:33;;;;;;;14.50;5.90;;;;;;;3.89;61.47;100328.23;117384;1186;22001;-54
2022/01/09 00:44:02;;;;;;;13.40;6.20;;;;;;;3.90;61.42;100318.67;117345;1180;21863;-69
2022/01/09 00:46:33;;;;;;;10.10;6.10;;;;;;;3.88;61.32;100318.48;117450;1182;23592;-70
2022/01/09 00:49:02;;;;;;;9.30;5.80;;;;;;;3.86;61.33;100320.20;117396;1181;21864;-70
2022/01/09 00:51:31;;;;;;;10.00;5.90;;;;;;;3.84;61.29;100319.29;117381;1185;21830;-70
2022/01/09 00:54:04;;;;;;;11.80;6.30;;;;;;;3.84;61.42;100313.57;117337;1182;23451;-70
2022/01/09 00:56:33;;;;;;;12.00;5.60;;;;;;;3.85;61.46;100310.64;117290;1185;23439;-71
2022/01/09 00:59:01;;;;;;;12.70;6.00;;;;;;;3.85;61.35;100310.98;117424;1181;23653;-55
2022/01/09 01:01:30;;;;;;;11.20;6.40;;;;;;;3.84;61.24;100313.39;117306;1185;21849;-71
2022/01/09 01:04:12;;;;;;;11.30;6.20;;;;;;;3.84;61.57;100305.92;117462;1176;23423;-69
2022/01/09 01:06:41;;;;;;;13.40;6.80;;;;;;;3.83;61.31;100292.02;117391;1182;23471;-70
2022/01/09 01:09:09;;;;;;;12.00;6.30;;;;;;;3.83;61.51;100297.40;117430;1185;22885;-70
2022/01/09 01:11:48;;;;;;;12.30;6.00;;;;;;;3.81;61.23;100286.62;117318;1185;24169;-54
2022/01/09 01:14:37;;;;;;;11.90;6.10;;;;;;;3.81;61.46;100286.09;117359;1185;22025;-54
2022/01/09 01:17:05;;;;;;;13.10;6.20;;;;;;;3.80;61.38;100291.97;117467;1180;22951;-70
2022/01/09 01:19:34;;;;;;;10.70;5.80;;;;;;;3.80;61.34;100287.30;117341;1185;21864;-54
2022/01/09 01:22:23;;;;;;;13.90;6.10;;;;;;;3.83;61.20;100283.70;117310;1182;23481;-70
2022/01/09 01:24:52;;;;;;;12.30;6.60;;;;;;;3.83;61.36;100283.00;117450;1186;24193;-55
2022/01/09 01:27:21;;;;;;;11.00;6.10;;;;;;;3.84;61.20;100272.60;117445;1182;21829;-55
2022/01/09 01:29:49;;;;;;;11.60;6.50;;;;;;;3.82;61.34;100267.36;117415;1182;23472;-55
2022/01/09 01:32:17;;;;;;;9.20;6.00;;;;;;;3.81;61.33;100267.17;117367;1185;23449;-55
2022/01/09 01:34:45;;;;;;;11.30;7.20;;;;;;;3.80;61.27;100263.52;117392;1186;23582;-55
2022/01/09 01:37:14;;;;;;;12.10;6.00;;;;;;;3.81;61.36;100261.61;117384;1183;21855;-70
2022/01/09 01:39:42;;;;;;;11.50;7.00;;;;;;;3.81;61.47;100259.36;117349;1183;21841;-54
2022/01/09 01:42:10;;;;;;;10.80;6.10;;;;;;;3.81;61.33;100250.16;117429;1185;23471;-70
2022/01/09 01:44:46;;;;;;;14.90;6.30;;;;;;;3.80;61.44;100243.39;117402;1179;21861;-70
2022/01/09 01:47:15;;;;;;;11.00;6.70;;;;;;;3.81;61.40;100235.94;117399;1182;21854;-71
2022/01/09 01:49:43;;;;;;;14.60;7.30;;;;;;;3.82;61.38;100227.45;117384;1184;22925;-70
2022/01/09 01:52:15;;;;;;;14.80;6.30;;;;;;;3.83;61.29;100222.94;117382;1182;21855;-55
2022/01/09 01:54:43;;;;;;;12.20;6.10;;;;;;;3.84;61.31;100221.40;117321;1185;21852;-70
2022/01/09 01:57:12;;;;;;;13.90;6.90;;;;;;;3.85;61.41;100221.58;117414;1186;22908;-54
2022/01/09 01:59:41;;;;;;;18.10;7.30;;;;;;;3.86;61.41;100216.91;117380;1184;21892;-70
2022/01/09 02:02:10;;;;;;;12.80;7.10;;;;;;;3.88;61.17;100218.15;117547;1183;23436;-54
2022/01/09 02:04:40;;;;;;;12.30;6.30;;;;;;;3.88;61.35;100212.08;117401;1183;23903;-55
2022/01/09 02:07:08;;;;;;;12.60;6.90;;;;;;;3.87;61.39;100204.60;117364;1185;23658;-55
2022/01/09 02:09:37;;;;;;;16.30;6.50;;;;;;;3.88;61.27;100204.43;117386;1182;21892;-55
2022/01/09 02:12:25;;;;;;;14.10;7.00;;;;;;;3.89;61.32;100199.23;117387;1188;21948;-67
2022/01/09 02:14:53;;;;;;;15.80;7.10;;;;;;;3.88;61.40;100193.67;117385;1183;22613;-71
2022/01/09 02:17:21;;;;;;;14.30;7.10;;;;;;;3.87;61.41;100189.66;117343;1185;21864;-70
2022/01/09 02:19:50;;;;;;;14.30;7.40;;;;;;;3.85;61.36;100186.34;117427;1180;21872;-55
2022/01/09 02:22:18;;;;;;;15.90;7.30;;;;;;;3.84;61.43;100185.29;117605;1182;23465;-55
2022/01/09 02:24:46;;;;;;;16.40;6.50;;;;;;;3.82;61.12;100179.02;117398;1185;23448;-54
2022/01/09 02:27:14;;;;;;;13.40;6.70;;;;;;;3.79;61.33;100177.41;117470;1185;21845;-70
2022/01/09 02:29:46;;;;;;;15.10;7.00;;;;;;;3.76;61.32;100176.52;117345;1185;23467;-54
2022/01/09 02:32:16;;;;;;;15.20;7.90;;;;;;;3.72;61.40;100178.05;117346;1183;21855;-61
2022/01/09 02:34:47;;;;;;;12.40;7.50;;;;;;;3.70;61.42;100169.15;117339;1182;25024;-55
2022/01/09 02:37:15;;;;;;;13.70;7.10;;;;;;;3.68;61.36;100162.20;117375;1185;21854;-55
2022/01/09 02:39:43;;;;;;;14.20;6.70;;;;;;;3.65;61.50;100153.13;117404;1184;23448;-70
2022/01/09 02:42:31;;;;;;;15.50;7.20;;;;;;;3.63;61.24;100148.23;117436;1183;24162;-70
2022/01/09 02:44:59;;;;;;;18.70;8.00;;;;;;;3.61;61.40;100145.95;117336;1185;22998;-70
2022/01/09 02:47:31;;;;;;;13.60;6.80;;;;;;;3.59;61.14;100142.98;117396;1185;22622;-70
2022/01/09 02:50:12;;;;;;;14.60;6.90;;;;;;;3.56;61.20;100139.48;117412;1180;21844;-71
2022/01/09 02:53:14;;;;;;;16.00;7.10;;;;;;;3.54;61.12;100136.68;117398;1186;21853;-55
2022/01/09 02:55:29;;;;;;;17.30;7.20;;;;;;;3.54;61.42;100131.13;117369;1186;22806;-57
2022/01/09 02:57:59;;;;;;;14.60;6.40;;;;;;;3.52;61.42;100121.23;117345;1185;23470;-70
2022/01/09 03:00:29;;;;;;;16.50;6.50;;;;;;;3.51;61.32;100122.08;117431;1185;22915;-70
2022/01/09 03:02:58;;;;;;;18.10;7.40;;;;;;;3.51;61.39;100122.76;117414;1182;22932;-54
2022/01/09 03:05:28;;;;;;;13.90;6.70;;;;;;;3.52;61.36;100125.21;117439;1185;22622;-55
2022/01/09 03:07:56;;;;;;;13.60;6.50;;;;;;;3.53;61.27;100119.33;117443;1186;21851;-71
2022/01/09 03:10:25;;;;;;;16.60;7.20;;;;;;;3.54;61.40;100106.15;117366;1182;23475;-70
2022/01/09 03:12:56;;;;;;;16.50;7.00;;;;;;;3.54;61.49;100100.59;117428;1183;22879;-70
2022/01/09 03:15:24;;;;;;;16.10;7.70;;;;;;;3.56;61.33;100099.22;117381;1183;21860;-55
2022/01/09 03:17:53;;;;;;;14.40;7.40;;;;;;;3.56;61.32;100095.75;117488;1185;22658;-53
2022/01/09 03:20:23;;;;;;;21.20;8.60;;;;;;;3.56;61.29;100097.48;117461;1183;21892;-55
2022/01/09 03:22:51;;;;;;;16.60;7.10;;;;;;;3.58;61.50;100095.08;117443;1183;22966;-54
2022/01/09 03:25:19;;;;;;;16.40;7.60;;;;;;;3.60;61.57;100090.42;117406;1182;23457;-71
2022/01/09 03:27:50;;;;;;;18.30;7.70;;;;;;;3.61;61.38;100088.70;117427;1183;21854;-54
2022/01/09 03:30:20;;;;;;;18.50;7.90;;;;;;;3.62;61.45;100088.19;117338;1185;21862;-53
2022/01/09 03:32:48;;;;;;;20.40;8.50;;;;;;;3.63;61.64;100089.24;117446;1186;22319;-54
2022/01/09 03:35:18;;;;;;;18.80;8.30;;;;;;;3.67;61.43;100088.43;117395;1182;23502;-71
2022/01/09 03:37:47;;;;;;;17.20;7.80;;;;;;;3.69;61.54;100090.54;117330;1185;22918;-54
2022/01/09 03:40:18;;;;;;;18.70;7.40;;;;;;;3.71;61.49;100090.55;117426;1182;22932;-70
2022/01/09 03:42:47;;;;;;;15.10;7.50;;;;;;;3.73;61.58;100089.36;117365;1184;21898;-70
2022/01/09 03:45:16;;;;;;;20.40;7.60;;;;;;;3.75;61.52;100088.85;117358;1183;21898;-54
2022/01/09 03:47:44;;;;;;;24.30;7.90;;;;;;;3.75;61.60;100087.98;117410;1182;23642;-71
2022/01/09 03:50:13;;;;;;;18.50;8.50;;;;;;;3.75;61.41;100086.44;117278;1183;23510;-71
2022/01/09 03:52:41;;;;;;;21.20;8.00;;;;;;;3.74;61.49;100080.53;117292;1185;22584;-71
2022/01/09 03:55:11;;;;;;;18.10;7.70;;;;;;;3.75;61.39;100079.31;117418;1182;21894;-70
2022/01/09 03:57:39;;;;;;;21.00;7.80;;;;;;;3.76;61.68;100072.02;117369;1185;23573;-71
2022/01/09 04:00:09;;;;;;;16.70;7.90;;;;;;;3.79;61.37;100072.23;117334;1183;22924;-71
2022/01/09 04:02:38;;;;;;;21.10;8.40;;;;;;;3.80;61.45;100071.73;117399;1183;24242;-72
2022/01/09 04:05:07;;;;;;;21.00;8.50;;;;;;;3.81;61.41;100073.98;117384;1186;21848;-71
2022/01/09 04:07:36;;;;;;;14.70;8.00;;;;;;;3.81;61.46;100073.98;117350;1182;23509;-54
2022/01/09 04:10:04;;;;;;;20.50;8.00;;;;;;;3.81;61.53;100070.86;117335;1185;22869;-54
2022/01/09 04:12:47;;;;;;;18.70;8.00;;;;;;;3.82;61.56;100066.54;117372;1185;22615;-55
2022/01/09 04:15:17;;;;;;;20.00;8.10;;;;;;;3.83;61.47;100056.13;117345;1185;22999;-72
2022/01/09 04:17:52;;;;;;;27.60;8.10;;;;;;;3.85;61.44;100053.90;117414;1185;23575;-55
2022/01/09 04:20:21;;;;;;;17.10;7.00;;;;;;;3.86;61.62;100052.52;117434;1183;21916;-71
2022/01/09 04:22:49;;;;;;;22.50;7.90;;;;;;;3.87;61.53;100055.14;117327;1185;21940;-54
2022/01/09 04:25:18;;;;;;;16.90;8.40;;;;;;;3.88;61.53;100055.14;117456;1183;21854;-72
2022/01/09 04:27:47;;;;;;;18.90;8.30;;;;;;;3.89;61.59;100055.68;117401;1186;22998;-54
2022/01/09 04:30:16;;;;;;;23.10;8.40;;;;;;;3.89;61.62;100052.04;117359;1185;22923;-54
2022/01/09 04:32:44;;;;;;;19.20;8.10;;;;;;;3.90;61.54;100045.96;117391;1185;21861;-72
2022/01/09 04:35:12;;;;;;;17.00;7.40;;;;;;;3.91;61.56;100047.88;117397;1182;24276;-54
2022/01/09 04:37:41;;;;;;;19.40;7.50;;;;;;;3.91;61.49;100049.27;117419;1182;23632;-70
2022/01/09 04:40:11;;;;;;;24.90;9.20;;;;;;;3.92;61.61;100045.46;117407;1182;21851;-55
2022/01/09 04:42:43;;;;;;;28.80;9.50;;;;;;;3.93;61.42;100041.47;117429;1185;21857;-66
2022/01/09 04:45:14;;;;;;;20.40;7.90;;;;;;;3.94;61.49;100036.28;117313;1185;23576;-66
2022/01/09 04:47:44;;;;;;;17.70;7.80;;;;;;;3.95;61.42;100028.48;117399;1182;24172;-54
2022/01/09 04:50:17;;;;;;;17.20;6.80;;;;;;;3.96;61.39;100027.80;117469;1185;22927;-65
2022/01/09 04:52:46;;;;;;;15.50;7.80;;;;;;;3.96;61.43;100025.88;117287;1184;22034;-54
2022/01/09 04:55:15;;;;;;;25.40;9.50;;;;;;;3.97;61.44;100022.23;117437;1184;23438;-63
2022/01/09 04:57:43;;;;;;;18.10;8.10;;;;;;;3.97;61.44;100018.79;117315;1182;23576;-54
2022/01/09 05:00:12;;;;;;;14.40;7.40;;;;;;;3.98;61.26;100018.44;117463;1186;21851;-55
2022/01/09 05:02:41;;;;;;;12.90;7.30;;;;;;;3.97;61.43;100014.62;117452;1183;23445;-55
2022/01/09 05:05:10;;;;;;;14.90;7.20;;;;;;;3.97;61.37;100011.67;117447;1185;21855;-63
2022/01/09 05:07:38;;;;;;;16.60;7.60;;;;;;;3.97;61.48;100011.84;117391;1183;24178;-63
2022/01/09 05:10:14;;;;;;;14.50;7.10;;;;;;;4.01;61.37;100012.90;117348;1183;23448;-62
2022/01/09 05:12:43;;;;;;;19.40;7.80;;;;;;;4.01;61.29;100009.08;117471;1181;21855;-63
2022/01/09 05:15:13;;;;;;;21.00;7.20;;;;;;;4.03;61.56;100007.02;117351;1185;24136;-54
2022/01/09 05:17:42;;;;;;;14.10;6.80;;;;;;;4.05;61.62;100003.21;117414;1185;21855;-63
2022/01/09 05:20:11;;;;;;;18.10;7.30;;;;;;;4.09;61.45;100000.81;117279;1182;21849;-54
2022/01/09 05:22:39;;;;;;;12.70;6.80;;;;;;;4.11;61.34;99997.88;117344;1183;21918;-53
2022/01/09 05:25:08;;;;;;;14.50;7.40;;;;;;;4.13;61.42;99999.47;117388;1185;21851;-64
2022/01/09 05:27:36;;;;;;;15.70;7.40;;;;;;;4.12;61.37;99995.98;117426;1183;21876;-64
2022/01/09 05:30:05;;;;;;;15.30;7.20;;;;;;;4.10;61.28;99994.05;117427;1183;21870;-64
2022/01/09 05:32:34;;;;;;;15.20;6.70;;;;;;;4.09;61.42;99989.52;117435;1185;22809;-53
2022/01/09 05:35:03;;;;;;;13.20;7.10;;;;;;;4.08;61.46;99988.29;117414;1182;21851;-53
2022/01/09 05:37:34;;;;;;;17.80;7.60;;;;;;;4.07;61.43;99987.60;117395;1186;21854;-65
2022/01/09 05:40:03;;;;;;;16.80;7.40;;;;;;;4.10;61.73;99983.97;117395;1182;22012;-53
2022/01/09 05:42:31;;;;;;;19.40;7.00;;;;;;;4.15;61.50;99983.69;117369;1185;23712;-52
2022/01/09 05:45:00;;;;;;;21.00;7.80;;;;;;;4.17;61.50;99981.44;117315;1182;21867;-64
2022/01/09 05:47:29;;;;;;;24.00;7.60;;;;;;;4.18;61.66;99979.71;117419;1185;21854;-52
2022/01/09 05:49:57;;;;;;;17.50;7.70;;;;;;;4.20;61.57;99979.36;117448;1185;23470;-52
2022/01/09 05:52:25;;;;;;;19.40;7.60;;;;;;;4.20;61.19;99980.23;117450;1184;23506;-65
2022/01/09 05:54:53;;;;;;;25.20;8.50;;;;;;;4.19;61.44;99974.32;117415;1182;23622;-52
2022/01/09 05:57:22;;;;;;;21.30;8.60;;;;;;;4.20;61.48;99970.33;117356;1172;23470;-65
2022/01/09 05:59:50;;;;;;;21.20;8.10;;;;;;;4.21;61.47;99971.73;117277;1185;23577;-52
2022/01/09 06:02:18;;;;;;;21.40;7.40;;;;;;;4.27;61.29;99974.55;117319;1185;23140;-65
2022/01/09 06:04:47;;;;;;;20.90;8.70;;;;;;;4.27;61.47;99978.36;117381;1185;21855;-65
2022/01/09 06:07:16;;;;;;;22.70;8.80;;;;;;;4.27;61.27;99973.16;117330;1183;22004;-65
2022/01/09 06:09:44;;;;;;;26.60;8.10;;;;;;;4.29;61.35;99975.95;118304;1184;21907;-53
2022/01/09 06:12:13;;;;;;;17.70;8.10;;;;;;;4.31;61.42;99978.92;118393;1185;23088;-52
2022/01/09 06:14:41;;;;;;;20.10;8.90;;;;;;;4.35;61.50;99983.64;117422;1182;21913;-53
2022/01/09 06:17:11;;;;;;;15.90;7.90;;;;;;;4.39;61.42;99981.94;117465;1183;21851;-63
2022/01/09 06:19:39;;;;;;;16.80;7.70;;;;;;;4.42;61.48;99978.98;117355;1182;23612;-65
2022/01/09 06:22:07;;;;;;;21.20;8.40;;;;;;;4.45;61.30;99973.80;117423;1183;23813;-52
2022/01/09 06:24:35;;;;;;;21.10;8.70;;;;;;;4.41;61.19;99978.64;117342;1185;21998;-64
2022/01/09 06:27:04;;;;;;;20.50;8.40;;;;;;;4.36;61.41;99976.17;117387;1185;22357;-53
2022/01/09 06:29:32;;;;;;;24.60;8.30;;;;;;;4.35;61.45;99980.70;117509;1188;21867;-53
2022/01/09 06:32:00;;;;;;;17.60;8.50;;;;;;;4.35;61.42;99980.70;117449;1185;21979;-53
2022/01/09 06:34:29;;;;;;;20.50;7.90;;;;;;;4.34;61.56;99976.33;117345;1186;23590;-55
2022/01/09 06:36:58;;;;;;;16.80;7.90;;;;;;;4.34;61.45;99979.98;117378;1186;21920;-65
2022/01/09 06:39:26;;;;;;;20.10;9.00;;;;;;;4.34;61.53;99977.73;117275;1181;21864;-65
2022/01/09 06:41:55;;;;;;;20.20;8.40;;;;;;;4.34;61.39;99978.59;118361;1183;22224;-55
2022/01/09 06:44:23;;;;;;;24.20;9.30;;;;;;;4.34;61.51;99975.46;117358;1185;23806;-65
2022/01/09 06:46:51;;;;;;;19.60;7.60;;;;;;;4.35;61.51;99973.21;117380;1185;23576;-65
2022/01/09 06:49:19;;;;;;;16.50;8.20;;;;;;;4.34;61.65;99971.82;117448;1182;23470;-53
2022/01/09 06:51:47;;;;;;;21.80;8.30;;;;;;;4.36;61.63;99967.66;117335;1183;21973;-51
2022/01/09 06:54:15;;;;;;;21.50;8.40;;;;;;;4.37;61.55;99965.42;117373;1182;23584;-67
2022/01/09 06:56:44;;;;;;;21.80;8.20;;;;;;;4.40;61.47;99960.23;117330;1185;23412;-52
2022/01/09 06:59:12;;;;;;;24.80;8.50;;;;;;;4.42;61.65;99957.10;117301;1182;21863;-66
2022/01/09 07:01:40;;;;;;;22.90;8.80;;;;;;;4.43;61.74;99949.98;119175;1183;22626;-51
2022/01/09 07:04:08;;;;;;;21.60;8.70;;;;;;;4.45;61.67;99950.34;117377;1185;21852;-67
2022/01/09 07:06:40;;;;;;;26.10;8.60;;;;;;;4.47;61.82;99948.09;117315;1186;24255;-67
2022/01/09 07:09:08;;;;;;;30.20;8.70;;;;;;;4.49;61.63;99947.05;117285;1185;21849;-51
2022/01/09 07:11:36;;;;;;;21.80;9.60;;;;;;;4.51;61.67;99946.03;117370;1185;22928;-51
2022/01/09 07:14:05;;;;;;;22.40;9.60;;;;;;;4.53;61.64;99940.32;117428;1185;22619;-51
2022/01/09 07:16:33;;;;;;;19.70;8.70;;;;;;;4.55;61.55;99936.85;117404;1185;21862;-68
2022/01/09 07:19:02;;;;;;;19.50;9.60;;;;;;;4.57;61.57;99938.59;117438;1182;21854;-67
2022/01/09 07:21:31;;;;;;;20.50;8.50;;;;;;;4.60;61.60;99934.45;117381;1182;23576;-67
2022/01/09 07:24:00;;;;;;;21.40;8.60;;;;;;;4.61;61.71;99930.97;117368;1182;21976;-64
2022/01/09 07:26:31;;;;;;;22.80;9.00;;;;;;;4.60;61.64;99926.27;117360;1183;21900;-66
2022/01/09 07:28:59;;;;;;;21.10;9.70;;;;;;;4.64;61.84;99918.11;117317;1182;23634;-51
2022/01/09 07:31:27;;;;;;;25.70;9.20;;;;;;;4.68;61.86;99916.05;117465;1185;23553;-52
2022/01/09 07:33:55;;;;;;;17.00;9.10;;;;;;;4.69;61.78;99908.58;117410;1182;23449;-52
2022/01/09 07:36:24;;;;;;;19.90;8.80;;;;;;;4.70;61.88;99905.63;117432;1185;24207;-53
2022/01/09 07:38:52;;;;;;;20.40;9.10;;;;;;;4.71;61.80;99899.20;117348;1182;21858;-53
2022/01/09 07:41:25;;;;;;;24.10;9.10;;;;;;;4.71;61.73;99895.73;117349;1182;22926;-66
2022/01/09 07:43:53;;;;;;;19.40;8.70;;;;;;;4.72;61.82;99890.51;117338;1185;21899;-55
2022/01/09 07:46:23;;;;;;;19.50;8.40;;;;;;;4.72;61.71;99888.26;117274;1185;24012;-55
2022/01/09 07:48:51;;;;;;;20.60;9.80;;;;;;;4.71;61.74;99886.52;117406;1185;24206;-66
2022/01/09 07:51:20;;;;;;;22.00;9.10;;;;;;;4.69;61.61;99889.45;117432;1183;23550;-54
2022/01/09 07:54:08;;;;;;;15.70;8.40;;;;;;;4.68;61.64;99892.06;117336;1182;23553;-67
2022/01/09 07:56:36;;;;;;;18.00;7.90;;;;;;;4.67;61.71;99895.88;117398;1185;24158;-54
2022/01/09 07:59:05;;;;;;;23.00;8.10;;;;;;;4.66;61.68;99892.75;117397;1186;22800;-67
2022/01/09 08:01:33;;;;;;;20.90;9.70;;;;;;;4.66;61.73;99889.45;117421;1185;24162;-67
2022/01/09 08:04:02;;;;;;;17.60;8.40;;;;;;;4.66;61.72;99890.14;117340;1185;24213;-67
2022/01/09 08:06:30;;;;;;;21.30;8.20;;;;;;;4.66;61.68;99887.19;117349;1183;23703;-53
2022/01/09 08:08:59;;;;;;;15.20;7.90;;;;;;;4.65;61.63;99887.89;117336;1185;23576;-67
2022/01/09 08:11:27;;;;;;;16.30;7.80;;;;;;;4.64;61.63;99883.71;117340;1185;21864;-53
2022/01/09 08:13:55;;;;;;;17.20;7.60;;;;;;;4.65;61.61;99887.19;117424;1187;21855;-68
2022/01/09 08:16:24;;;;;;;14.50;7.80;;;;;;;4.65;61.69;99883.36;117442;1186;23576;-53
2022/01/09 08:18:53;;;;;;;13.40;7.70;;;;;;;4.65;61.75;99880.77;117421;1185;22704;-54
2022/01/09 08:21:21;;;;;;;17.70;7.50;;;;;;;4.65;61.73;99880.06;117431;1182;22327;-55
2022/01/09 08:23:50;;;;;;;15.20;8.10;;;;;;;4.66;61.57;99880.58;117414;1183;22942;-65
2022/01/09 08:26:18;;;;;;;16.00;8.70;;;;;;;4.67;61.77;99876.77;117166;1188;21845;-54
2022/01/09 08:28:48;;;;;;;15.90;6.90;;;;;;;4.67;61.68;99872.23;119460;1184;21852;-55
2022/01/09 08:31:17;;;;;;;12.10;7.20;;;;;;;4.68;61.70;99869.83;118742;1183;23445;-55
2022/01/09 08:33:45;;;;;;;19.50;7.20;;;;;;;4.70;61.66;99863.05;117374;1185;21857;-67
2022/01/09 08:36:13;;;;;;;20.10;6.90;;;;;;;4.71;61.78;99861.33;117365;1185;23572;-67
2022/01/09 08:38:42;;;;;;;14.70;7.00;;;;;;;4.81;61.63;99861.17;117337;1184;21906;-54
2022/01/09 08:41:11;;;;;;;15.70;7.20;;;;;;;4.74;61.66;99859.41;117406;1183;22037;-68
2022/01/09 08:43:39;;;;;;;13.90;6.60;;;;;;;4.78;61.66;99857.70;117463;1186;23576;-68
2022/01/09 08:46:08;;;;;;;14.70;7.30;;;;;;;4.73;61.39;99854.72;117436;1182;23448;-67
2022/01/09 08:48:36;;;;;;;15.90;7.20;;;;;;;4.73;61.55;99851.24;117407;1185;22620;-67
2022/01/09 08:51:06;;;;;;;16.20;7.30;;;;;;;4.75;61.68;99853.52;117334;1185;22926;-52
2022/01/09 08:53:35;;;;;;;15.80;6.90;;;;;;;4.79;61.76;99851.09;117311;1185;23452;-52
2022/01/09 08:56:04;;;;;;;11.40;6.80;;;;;;;4.80;61.80;99843.61;117384;1185;23680;-68
2022/01/09 08:58:33;;;;;;;20.80;10.20;;;;;;;4.80;61.65;99841.89;117388;1183;23576;-53
2022/01/09 09:01:01;;;;;;;18.10;7.40;;;;;;;4.80;61.74;99838.05;117356;1185;22986;-53
2022/01/09 09:03:30;;;;;;;15.90;6.80;;;;;;;4.80;61.70;99832.14;117469;1182;21875;-54
2022/01/09 09:06:02;;;;;;;18.10;7.20;;;;;;;4.79;61.50;99826.23;117340;1179;21855;-55
2022/01/09 09:08:30;;;;;;;14.70;7.10;;;;;;;4.79;61.67;99823.98;117375;1185;21857;-68
2022/01/09 09:10:58;;;;;;;14.10;7.40;;;;;;;4.79;61.94;99822.58;117361;1185;23500;-68
2022/01/09 09:13:26;;;;;;;12.10;7.00;;;;;;;4.78;61.74;99821.71;117352;1185;21860;-54
2022/01/09 09:15:55;;;;;;;12.70;7.10;;;;;;;4.77;61.63;99817.36;117411;1182;23448;-69
2022/01/09 09:18:47;;;;;;;15.00;7.30;;;;;;;4.77;61.65;99817.52;117337;1186;21866;-67
2022/01/09 09:21:16;;;;;;;12.80;7.10;;;;;;;4.77;61.79;99812.33;117390;1186;21895;-53
2022/01/09 09:23:45;;;;;;;13.60;7.00;;;;;;;4.77;61.82;99806.75;117396;1185;21901;-55
2022/01/09 09:26:14;;;;;;;13.90;6.80;;;;;;;4.77;61.78;99803.98;117346;1184;22609;-54
2022/01/09 09:28:43;;;;;;;10.70;6.30;;;;;;;4.77;61.54;99800.85;117307;1184;21864;-69
2022/01/09 09:31:12;;;;;;;11.80;6.10;;;;;;;4.77;61.79;99796.15;117228;1185;21850;-54
2022/01/09 09:33:40;;;;;;;12.10;6.00;;;;;;;4.78;61.48;99794.59;117367;1182;22831;-54
2022/01/09 09:36:09;;;;;;;13.30;6.50;;;;;;;4.78;61.70;99789.02;117300;1182;22105;-68
2022/01/09 09:38:38;;;;;;;15.80;6.80;;;;;;;4.78;61.57;99787.81;119387;1185;22365;-68
2022/01/09 09:41:05;;;;;;;12.40;6.20;;;;;;;4.80;61.53;99785.38;119421;1184;21886;-69
2022/01/09 09:43:34;;;;;;;13.80;6.40;;;;;;;4.81;61.48;99781.05;119409;1184;21826;-68
2022/01/09 09:46:03;;;;;;;13.20;6.00;;;;;;;4.81;61.65;99778.44;119404;1185;21806;-54
2022/01/09 09:48:31;;;;;;;15.10;6.70;;;;;;;4.82;61.67;99774.77;119439;1182;22281;-68
2022/01/09 09:51:00;;;;;;;15.20;6.40;;;;;;;4.83;61.72;99771.14;119449;1182;21853;-55
2022/01/09 09:53:28;;;;;;;10.50;6.30;;;;;;;4.84;61.64;99765.92;119445;1185;21785;-68
2022/01/09 09:55:56;;;;;;;13.00;6.60;;;;;;;4.85;61.53;99758.80;119452;1185;21775;-68
2022/01/09 09:58:24;;;;;;;11.20;6.60;;;;;;;4.86;61.51;99754.44;119468;1184;21847;-68
2022/01/09 10:00:53;;;;;;;11.50;5.80;;;;;;;4.86;61.74;99757.21;119463;1183;21815;-67
2022/01/09 10:03:28;;;;;;;13.40;6.50;;;;;;;4.88;61.86;99749.75;119451;1182;21849;-68
2022/01/09 10:06:06;;;;;;;15.00;6.20;;;;;;;4.89;61.89;99747.32;119408;1179;21792;-55
2022/01/09 10:08:39;;;;;;;12.70;6.90;;;;;;;4.91;61.84;99748.01;119247;1185;21937;-55
2022/01/09 10:11:17;;;;;;;11.30;5.70;;;;;;;4.95;61.78;99749.23;119414;1185;21784;-62
2022/01/09 10:13:45;;;;;;;16.00;6.40;;;;;;;5.01;61.99;99748.02;119397;1185;21814;-54
2022/01/09 10:16:16;;;;;;;11.20;6.20;;;;;;;5.05;61.69;99747.85;119429;1185;22098;-55
2022/01/09 10:18:44;;;;;;;15.20;6.80;;;;;;;5.07;61.83;99740.73;117496;1182;22961;-55
2022/01/09 10:21:13;;;;;;;13.70;6.50;;;;;;;5.09;61.84;99737.94;119432;1183;21775;-55
2022/01/09 10:24:07;;;;;;;13.70;6.60;;;;;;;5.11;61.79;99740.89;119485;1185;21777;-67
2022/01/09 10:26:40;;;;;;;14.10;6.80;;;;;;;5.15;61.72;99738.98;119376;1185;22495;-68
2022/01/09 10:29:08;;;;;;;15.50;6.80;;;;;;;5.18;61.63;99741.06;119438;1185;21813;-55
2022/01/09 10:31:45;;;;;;;15.30;7.00;;;;;;;5.20;61.58;99736.36;119442;1184;21812;-55
2022/01/09 10:34:16;;;;;;;14.20;7.90;;;;;;;5.23;61.98;99729.58;119379;1185;21776;-68
2022/01/09 10:36:48;;;;;;;12.90;7.50;;;;;;;5.23;61.89;99729.41;119474;1185;21838;-55
2022/01/09 10:39:18;;;;;;;16.60;7.50;;;;;;;5.24;61.74;99724.36;119417;1184;21827;-67
2022/01/09 10:42:07;;;;;;;15.20;7.50;;;;;;;5.27;61.55;99728.88;119357;1182;21901;-55
2022/01/09 10:44:37;;;;;;;16.60;7.90;;;;;;;5.28;61.63;99728.54;119461;1183;21794;-67
2022/01/09 10:47:07;;;;;;;12.80;7.20;;;;;;;5.27;61.60;99721.92;119447;1185;21865;-68
2022/01/09 10:49:47;;;;;;;15.00;6.90;;;;;;;5.26;61.41;99718.27;119433;1183;21811;-55
2022/01/09 10:52:20;;;;;;;19.40;7.70;;;;;;;5.26;61.56;99716.36;119352;1185;21781;-55
2022/01/09 10:54:49;;;;;;;17.60;7.40;;;;;;;5.27;61.76;99709.92;119390;1184;21780;-68
2022/01/09 10:57:25;;;;;;;16.00;7.60;;;;;;;5.26;61.55;99705.93;119445;1184;21791;-55
2022/01/09 10:59:53;;;;;;;12.80;7.80;;;;;;;5.26;61.50;99698.45;119371;1182;21836;-68
2022/01/09 11:02:21;;;;;;;18.60;7.60;;;;;;;5.25;61.89;99692.88;119258;1184;22307;-55
2022/01/09 11:04:49;;;;;;;18.90;7.80;;;;;;;5.25;61.58;99692.70;119450;1184;21775;-56
2022/01/09 11:07:17;;;;;;;16.80;7.20;;;;;;;5.25;61.65;99689.06;119471;1185;21822;-56
2022/01/09 11:09:48;;;;;;;14.30;7.10;;;;;;;5.24;61.62;99683.65;119349;1184;21819;-68
2022/01/09 11:12:19;;;;;;;15.30;8.60;;;;;;;5.23;61.52;99682.27;119451;1184;21786;-55
2022/01/09 11:14:49;;;;;;;15.30;8.00;;;;;;;5.24;61.59;99682.27;119387;1185;21818;-68
2022/01/09 11:17:17;;;;;;;15.50;7.90;;;;;;;5.23;61.59;99688.52;119445;1185;21772;-61
2022/01/09 11:19:46;;;;;;;15.40;7.90;;;;;;;5.23;61.54;99690.10;119271;1185;21835;-55
2022/01/09 11:22:14;;;;;;;15.30;8.40;;;;;;;5.23;61.62;99691.49;119382;1185;21869;-55
2022/01/09 11:24:57;;;;;;;16.30;8.20;;;;;;;5.22;61.68;99689.23;119468;1184;22172;-66
2022/01/09 11:27:49;;;;;;;12.80;7.90;;;;;;;5.22;61.75;99688.18;119430;1183;21786;-68
2022/01/09 11:30:20;;;;;;;19.20;8.50;;;;;;;5.23;61.60;99689.75;119405;1179;22257;-55
2022/01/09 11:33:06;;;;;;;13.80;9.10;;;;;;;5.23;61.71;99687.66;119450;1185;21838;-68
2022/01/09 11:35:41;;;;;;;16.50;8.40;;;;;;;5.24;61.91;99686.61;119452;1184;21779;-68